Time;durP1;ratioP1;P1;durP2;ratioP2;P2;SDS_P1;SDS_P2;PMS_P1;PMS_P2;Temp;Humidity;BMP_temperature;BMP_pressure;BME280_temperature;BME280_humidity;BME280_pressure;Samples;Min_cycle;Max_cycle;Signal;HPM_P1;HPM_P2
2021/04/05 00:01:24;;;;;;;14.27;11.60;;;7.00;93.10;;;;;;5052201;28;20916;-79
2021/04/05 00:03:50;;;;;;;16.67;11.07;;;7.00;92.80;;;;;;5053304;28;20595;-80
2021/04/05 00:06:18;;;;;;;14.30;11.87;;;7.00;92.80;;;;;;5053615;28;20666;-80
2021/04/05 00:08:44;;;;;;;13.30;11.25;;;7.00;93.00;;;;;;5052998;28;20173;-80
2021/04/05 00:11:11;;;;;;;15.73;11.50;;;7.00;93.00;;;;;;5053214;28;20173;-79
2021/04/05 00:13:39;;;;;;;17.13;11.25;;;7.00;93.10;;;;;;5051532;28;20200;-79
2021/04/05 00:16:05;;;;;;;15.07;12.30;;;7.00;93.10;;;;;;5051705;28;20287;-79
2021/04/05 00:18:34;;;;;;;15.80;10.27;;;7.00;93.10;;;;;;5052435;28;20252;-79
2021/04/05 00:21:07;;;;;;;16.77;13.02;;;7.00;93.20;;;;;;5068146;28;20568;-79
2021/04/05 00:23:34;;;;;;;11.68;10.48;;;7.00;93.50;;;;;;5073030;28;20189;-79
2021/04/05 00:26:00;;;;;;;17.58;12.32;;;7.10;93.30;;;;;;5051626;28;20189;-79
2021/04/05 00:28:26;;;;;;;19.63;12.38;;;7.10;93.40;;;;;;5052673;28;20169;-80
2021/04/05 00:30:53;;;;;;;16.37;12.10;;;7.10;93.40;;;;;;5051435;28;20191;-80
2021/04/05 00:33:20;;;;;;;16.15;11.85;;;7.10;93.50;;;;;;5052727;28;20169;-80
2021/04/05 00:35:46;;;;;;;17.27;12.05;;;7.10;93.40;;;;;;5051532;28;20661;-79
2021/04/05 00:38:12;;;;;;;16.88;13.82;;;7.10;93.50;;;;;;5052255;28;20187;-80
2021/04/05 00:40:53;;;;;;;21.35;13.40;;;7.10;93.70;;;;;;5051459;28;20172;-80
2021/04/05 00:43:19;;;;;;;16.92;12.50;;;7.10;93.80;;;;;;5067844;28;20259;-78
2021/04/05 00:45:46;;;;;;;17.77;11.93;;;7.20;93.70;;;;;;5052573;28;20614;-78
2021/04/05 00:48:13;;;;;;;16.40;13.23;;;7.20;93.80;;;;;;5050776;28;20169;-78
2021/04/05 00:51:07;;;;;;;15.32;12.90;;;7.20;93.90;;;;;;5034488;28;20173;-79
2021/04/05 00:53:35;;;;;;;16.48;12.45;;;7.20;94.50;;;;;;5048700;28;20212;-79
2021/04/05 00:56:02;;;;;;;20.42;13.00;;;7.30;94.00;;;;;;5050877;28;20208;-79
2021/04/05 00:58:28;;;;;;;16.33;13.68;;;7.30;94.10;;;;;;5050678;28;20644;-79
2021/04/05 01:01:01;;;;;;;19.85;13.90;;;7.30;94.10;;;;;;5056573;28;20223;-79
2021/04/05 01:03:29;;;;;;;16.27;12.57;;;7.30;94.20;;;;;;5051113;28;20259;-79
2021/04/05 01:06:01;;;;;;;17.02;13.18;;;7.40;94.20;;;;;;5051902;28;20175;-79
2021/04/05 01:08:28;;;;;;;18.25;15.00;;;7.40;94.30;;;;;;5050637;28;20231;-79
2021/04/05 01:10:54;;;;;;;19.60;12.65;;;7.40;94.20;;;;;;5050782;28;20161;-79
2021/04/05 01:13:20;;;;;;;20.20;14.50;;;7.40;94.20;;;;;;5051822;28;20223;-80
2021/04/05 01:15:46;;;;;;;19.90;14.32;;;7.40;94.20;;;;;;5050589;28;20239;-79
2021/04/05 01:18:14;;;;;;;25.70;16.75;;;7.40;94.20;;;;;;5050323;28;20561;-79
2021/04/05 01:20:40;;;;;;;18.98;13.60;;;7.40;94.30;;;;;;5050562;28;20172;-79
2021/04/05 01:23:06;;;;;;;15.13;12.57;;;7.40;94.30;;;;;;5051934;28;20177;-79
2021/04/05 01:25:32;;;;;;;15.63;12.20;;;7.40;94.50;;;;;;5051454;28;20575;-79
2021/04/05 01:27:58;;;;;;;18.92;13.10;;;7.40;94.40;;;;;;5051397;28;20629;-78
2021/04/05 01:30:36;;;;;;;15.90;12.17;;;7.50;94.50;;;;;;5049875;28;20173;-78
2021/04/05 01:33:19;;;;;;;17.20;13.93;;;7.50;94.80;;;;;;5050469;28;20582;-78
2021/04/05 01:35:49;;;;;;;16.55;12.68;;;7.50;94.80;;;;;;5033707;28;20200;-78
2021/04/05 01:38:20;;;;;;;15.93;12.52;;;7.60;94.50;;;;;;5055568;28;20532;-78
2021/04/05 01:40:49;;;;;;;17.17;12.85;;;7.60;94.70;;;;;;5050307;28;20161;-78
2021/04/05 01:43:15;;;;;;;17.15;12.52;;;7.60;94.60;;;;;;5066924;28;20262;-79
2021/04/05 01:45:42;;;;;;;14.60;12.63;;;7.60;94.60;;;;;;5050421;28;20165;-79
2021/04/05 01:48:13;;;;;;;15.55;11.93;;;7.60;94.60;;;;;;5051190;28;21149;-79
2021/04/05 01:50:42;;;;;;;19.65;13.55;;;7.70;94.70;;;;;;5050344;28;20302;-79
2021/04/05 01:53:09;;;;;;;19.60;13.50;;;7.70;94.70;;;;;;5050253;28;20621;-79
2021/04/05 01:55:36;;;;;;;17.40;14.05;;;7.70;94.70;;;;;;5051588;28;20213;-79
2021/04/05 01:58:04;;;;;;;19.00;12.43;;;7.70;94.70;;;;;;5051074;28;20192;-79
2021/04/05 02:00:36;;;;;;;19.67;12.82;;;7.70;94.80;;;;;;5050364;28;20298;-79
2021/04/05 02:03:09;;;;;;;15.93;12.20;;;7.70;95.00;;;;;;5051510;28;20165;-79
2021/04/05 02:05:37;;;;;;;17.40;11.93;;;7.80;95.00;;;;;;5050123;28;20192;-79
2021/04/05 02:08:06;;;;;;;18.45;13.30;;;7.80;94.90;;;;;;5066518;28;20890;-79
2021/04/05 02:10:32;;;;;;;17.20;14.25;;;7.80;94.80;;;;;;5033506;28;20188;-79
2021/04/05 02:12:58;;;;;;;17.63;13.07;;;7.80;94.80;;;;;;5051644;28;20179;-79
2021/04/05 02:15:25;;;;;;;18.20;13.20;;;7.80;94.80;;;;;;5057220;28;20197;-79
2021/04/05 02:17:52;;;;;;;18.42;12.52;;;7.90;94.90;;;;;;5057377;28;20164;-79
2021/04/05 02:20:18;;;;;;;24.00;13.77;;;7.80;94.80;;;;;;5059599;28;20176;-79
2021/04/05 02:22:46;;;;;;;20.73;12.85;;;7.80;94.70;;;;;;5058649;28;20170;-80
2021/04/05 02:25:14;;;;;;;20.63;12.15;;;7.80;94.70;;;;;;5052239;28;20229;-79
2021/04/05 02:27:43;;;;;;;18.20;14.00;;;7.70;94.70;;;;;;5051887;28;20215;-78
2021/04/05 02:30:09;;;;;;;16.92;14.55;;;7.80;94.90;;;;;;5050839;28;20581;-79
2021/04/05 02:32:38;;;;;;;18.27;13.10;;;7.70;95.30;;;;;;5050916;28;20177;-79
2021/04/05 02:35:05;;;;;;;20.75;14.50;;;7.60;95.40;;;;;;5049732;28;20184;-79
2021/04/05 02:37:31;;;;;;;23.48;15.45;;;7.60;95.20;;;;;;5049402;28;20188;-79
2021/04/05 02:40:00;;;;;;;16.60;12.70;;;7.60;95.70;;;;;;5049843;28;20194;-78
2021/04/05 02:42:26;;;;;;;20.58;13.35;;;7.50;95.40;;;;;;5052655;28;20546;-78
2021/04/05 02:44:52;;;;;;;22.07;14.90;;;7.50;95.50;;;;;;5053500;28;20189;-79
2021/04/05 02:47:19;;;;;;;19.02;12.82;;;7.40;95.50;;;;;;5053213;28;20670;-78
2021/04/05 02:49:45;;;;;;;19.50;12.90;;;7.40;95.60;;;;;;5055079;28;20173;-78
2021/04/05 02:52:11;;;;;;;21.43;14.90;;;7.40;95.40;;;;;;5058655;28;20227;-79
2021/04/05 02:54:38;;;;;;;15.23;12.63;;;7.40;95.80;;;;;;5054523;28;21002;-79
2021/04/05 02:57:05;;;;;;;14.82;11.15;;;7.40;95.70;;;;;;5052928;28;20204;-79
2021/04/05 02:59:31;;;;;;;13.90;12.13;;;7.40;95.60;;;;;;5054664;28;20169;-79
2021/04/05 03:01:56;;;;;;;17.77;11.73;;;7.40;95.50;;;;;;5054408;28;20168;-79
2021/04/05 03:04:22;;;;;;;19.97;13.03;;;7.40;95.70;;;;;;5053386;28;21210;-79
2021/04/05 03:06:49;;;;;;;14.37;10.50;;;7.40;95.70;;;;;;5054100;28;20637;-79
2021/04/05 03:09:15;;;;;;;14.18;11.80;;;7.40;95.60;;;;;;5053191;28;20621;-79
2021/04/05 03:11:43;;;;;;;15.63;11.10;;;7.40;95.60;;;;;;5054432;28;20173;-79
2021/04/05 03:14:11;;;;;;;14.85;11.75;;;7.50;95.70;;;;;;5053101;28;20598;-79
2021/04/05 03:16:39;;;;;;;19.30;11.50;;;7.40;95.60;;;;;;5052629;28;20726;-79
2021/04/05 03:19:06;;;;;;;16.15;12.70;;;7.40;95.80;;;;;;5054213;28;20180;-79
2021/04/05 03:21:32;;;;;;;17.98;11.93;;;7.50;95.90;;;;;;5054182;28;20173;-79
2021/04/05 03:24:01;;;;;;;18.83;11.40;;;7.50;96.10;;;;;;5054134;28;20238;-79
2021/04/05 03:26:28;;;;;;;17.70;11.70;;;7.60;96.30;;;;;;5052404;28;20697;-79
2021/04/05 03:28:54;;;;;;;17.25;11.38;;;7.70;96.50;;;;;;5057484;28;20664;-79
2021/04/05 03:31:24;;;;;;;17.45;12.02;;;7.80;96.50;;;;;;5052719;28;20200;-79
2021/04/05 03:34:15;;;;;;;16.40;11.52;;;7.90;96.60;;;;;;5053958;28;20189;-79
2021/04/05 03:36:54;;;;;;;16.20;10.63;;;8.00;96.80;;;;;;5052263;28;20308;-79
2021/04/05 03:39:21;;;;;;;14.48;11.68;;;8.00;96.60;;;;;;5052652;28;20169;-78
2021/04/05 03:42:02;;;;;;;15.45;11.63;;;8.10;96.40;;;;;;5036055;28;20201;-78
2021/04/05 03:44:38;;;;;;;20.60;12.20;;;8.20;96.50;;;;;;5052399;28;20220;-79
2021/04/05 03:48:01;;;;;;;16.58;11.27;;;8.20;96.60;;;;;;5053229;28;20334;-79
2021/04/05 03:50:39;;;;;;;16.83;10.25;;;8.30;96.80;;;;;;4995485;28;20201;-78
2021/04/05 03:53:42;;;;;;;13.05;10.00;;;8.30;96.30;;;;;;4994417;28;20657;-78
2021/04/05 03:56:17;;;;;;;15.77;10.05;;;8.30;96.40;;;;;;5047475;28;20655;-78
2021/04/05 03:58:49;;;;;;;15.60;10.48;;;8.30;96.30;;;;;;5052420;28;20252;-78
2021/04/05 04:01:20;;;;;;;14.77;11.40;;;8.40;96.20;;;;;;5082578;23;20293;-77
2021/04/05 04:04:03;;;;;;;19.52;11.75;;;8.40;96.40;;;;;;5112765;28;20216;-77
2021/04/05 04:09:08;;;;;;;16.08;11.57;;;8.40;96.40;;;;;;5095019;28;20202;-77
2021/04/05 04:11:36;;;;;;;19.88;12.57;;;8.50;96.70;;;;;;5081872;28;21779;-77
2021/04/05 04:14:04;;;;;;;16.05;12.00;;;8.60;97.10;;;;;;5112755;28;20189;-77
2021/04/05 04:16:30;;;;;;;19.55;12.38;;;8.60;96.80;;;;;;5110658;28;20203;-77
2021/04/05 04:19:02;;;;;;;16.83;12.52;;;8.70;97.20;;;;;;5112917;28;20240;-77
2021/04/05 04:21:29;;;;;;;16.58;11.00;;;8.70;97.00;;;;;;5112808;28;20692;-77
2021/04/05 04:23:59;;;;;;;16.38;11.40;;;8.70;97.00;;;;;;5112273;28;20500;-77
2021/04/05 04:26:25;;;;;;;18.90;12.50;;;8.80;96.90;;;;;;5113363;28;20171;-77
2021/04/05 04:28:51;;;;;;;17.53;12.73;;;8.90;97.00;;;;;;5112547;28;20163;-77
2021/04/05 04:31:20;;;;;;;19.97;12.23;;;9.00;97.10;;;;;;5113418;28;20588;-78
2021/04/05 04:33:48;;;;;;;16.52;10.82;;;9.00;97.10;;;;;;5119390;28;20553;-77
2021/04/05 04:36:20;;;;;;;17.90;10.82;;;9.10;97.10;;;;;;5113308;28;20190;-77
2021/04/05 04:38:46;;;;;;;22.27;11.50;;;9.10;97.10;;;;;;5112076;28;20178;-77
2021/04/05 04:41:23;;;;;;;14.90;11.37;;;9.20;97.10;;;;;;5113373;28;20182;-78
2021/04/05 04:43:53;;;;;;;20.77;11.50;;;9.20;97.20;;;;;;5113200;27;20583;-78
2021/04/05 04:46:19;;;;;;;13.35;10.13;;;9.30;97.10;;;;;;5113109;28;20175;-78
2021/04/05 04:48:45;;;;;;;18.73;11.90;;;9.30;97.00;;;;;;5112866;28;20224;-78
2021/04/05 04:51:10;;;;;;;18.73;12.30;;;9.40;97.10;;;;;;5111766;28;20218;-78
2021/04/05 04:53:36;;;;;;;15.13;11.63;;;9.40;97.10;;;;;;5113025;28;20500;-78
2021/04/05 04:56:02;;;;;;;16.67;10.90;;;9.50;97.10;;;;;;5111457;28;20226;-78
2021/04/05 04:58:27;;;;;;;14.17;10.93;;;9.50;97.10;;;;;;5112597;28;20171;-77
2021/04/05 05:00:53;;;;;;;14.70;11.00;;;9.50;97.10;;;;;;5112632;28;20654;-77
2021/04/05 05:03:20;;;;;;;21.17;12.20;;;9.50;97.40;;;;;;5111611;28;20163;-78
2021/04/05 05:05:46;;;;;;;15.82;11.82;;;9.60;97.00;;;;;;5112977;28;20600;-78
2021/04/05 05:08:12;;;;;;;15.23;12.10;;;9.50;97.00;;;;;;5112579;28;20174;-78
2021/04/05 05:10:38;;;;;;;16.47;11.20;;;9.50;97.10;;;;;;5118770;28;20186;-77
2021/04/05 05:13:04;;;;;;;13.73;11.63;;;9.50;97.10;;;;;;5104327;28;20262;-78
2021/04/05 05:15:30;;;;;;;18.63;11.70;;;9.50;97.10;;;;;;5111138;28;20658;-77
2021/04/05 05:17:57;;;;;;;22.23;12.23;;;9.50;97.60;;;;;;5112274;28;21144;-78
2021/04/05 05:20:23;;;;;;;20.40;12.35;;;9.50;97.30;;;;;;5111427;28;20541;-77
2021/04/05 05:22:53;;;;;;;17.00;12.53;;;9.50;97.30;;;;;;5112626;28;20163;-77
2021/04/05 05:25:21;;;;;;;14.38;11.25;;;9.50;97.40;;;;;;5112654;28;20167;-77
2021/04/05 05:27:54;;;;;;;17.33;9.65;;;9.60;97.40;;;;;;5112102;28;20210;-77
2021/04/05 05:30:21;;;;;;;18.60;10.35;;;9.60;97.50;;;;;;5112435;28;20575;-77
2021/04/05 05:32:52;;;;;;;18.75;11.15;;;9.60;97.50;;;;;;5112430;28;20250;-77
2021/04/05 05:35:19;;;;;;;14.88;11.80;;;9.60;97.50;;;;;;5112231;28;20175;-78
2021/04/05 05:37:45;;;;;;;18.92;13.55;;;9.60;97.50;;;;;;5109891;28;21071;-78
2021/04/05 05:40:23;;;;;;;18.13;13.40;;;9.60;97.60;;;;;;5101869;28;20213;-78
2021/04/05 05:43:00;;;;;;;16.80;12.48;;;9.60;97.80;;;;;;5099991;28;20212;-78
2021/04/05 05:45:33;;;;;;;14.90;10.55;;;9.60;97.70;;;;;;5102363;28;20182;-78
2021/04/05 05:48:20;;;;;;;23.38;11.23;;;9.60;97.80;;;;;;5109044;28;20178;-78
2021/04/05 05:51:13;;;;;;;18.25;11.50;;;9.60;98.00;;;;;;5104671;28;20197;-78
2021/04/05 05:53:57;;;;;;;16.38;11.18;;;9.70;98.10;;;;;;5105092;28;20163;-78
2021/04/05 05:57:03;;;;;;;17.60;12.82;;;9.70;98.10;;;;;;5101253;28;20199;-78
2021/04/05 05:59:45;;;;;;;15.82;12.65;;;9.70;98.40;;;;;;5102078;28;20179;-78
2021/04/05 06:02:23;;;;;;;16.80;12.40;;;9.70;98.30;;;;;;5101917;28;20590;-78
2021/04/05 06:05:20;;;;;;;18.73;13.65;;;9.70;98.30;;;;;;5104584;28;20646;-77
2021/04/05 06:08:18;;;;;;;21.23;13.23;;;9.70;98.50;;;;;;5105347;28;20548;-77
2021/04/05 06:11:05;;;;;;;17.65;13.13;;;9.70;98.50;;;;;;5103450;28;20198;-78
2021/04/05 06:13:52;;;;;;;21.08;12.73;;;9.70;98.20;;;;;;5102228;28;20172;-78
2021/04/05 06:16:45;;;;;;;21.75;12.70;;;9.70;98.50;;;;;;5104294;28;20248;-77
2021/04/05 06:19:38;;;;;;;20.02;12.77;;;9.70;98.60;;;;;;5095866;28;20638;-77
2021/04/05 06:22:27;;;;;;;21.80;13.43;;;9.70;98.50;;;;;;5094269;28;20191;-77
2021/04/05 06:25:02;;;;;;;20.60;12.10;;;9.70;98.90;;;;;;5101732;28;20221;-77
2021/04/05 06:27:55;;;;;;;18.67;13.20;;;9.70;98.60;;;;;;5093734;28;20175;-77
2021/04/05 06:30:48;;;;;;;16.85;12.32;;;9.70;98.90;;;;;;5095316;28;20178;-77
2021/04/05 06:33:15;;;;;;;27.77;14.32;;;9.60;99.00;;;;;;5106938;28;22043;-78
2021/04/05 06:35:59;;;;;;;23.48;14.10;;;9.70;99.00;;;;;;5106275;28;20614;-78
2021/04/05 06:38:30;;;;;;;22.75;12.07;;;9.60;99.10;;;;;;5111752;28;20190;-77
2021/04/05 06:41:01;;;;;;;21.05;13.73;;;9.60;99.10;;;;;;5121100;27;20758;-78
2021/04/05 06:43:44;;;;;;;22.38;13.57;;;9.60;99.30;;;;;;5095411;28;20201;-78
2021/04/05 06:46:43;;;;;;;23.45;14.93;;;9.60;99.20;;;;;;5112281;28;20178;-78
2021/04/05 06:49:21;;;;;;;19.52;14.63;;;9.70;99.70;;;;;;5113302;28;20258;-78
2021/04/05 06:52:13;;;;;;;24.70;15.15;;;9.70;99.90;;;;;;5106693;28;20222;-77
2021/04/05 06:54:58;;;;;;;24.00;15.35;;;9.60;99.90;;;;;;5111860;28;20657;-80
2021/04/05 06:58:00;;;;;;;21.00;15.30;;;9.60;99.90;;;;;;5110165;28;20714;-78
2021/04/05 07:00:58;;;;;;;24.45;15.25;;;9.60;99.90;;;;;;5104938;28;20178;-80
2021/04/05 07:03:36;;;;;;;16.63;13.07;;;9.50;99.90;;;;;;5087022;28;20324;-78
2021/04/05 07:06:10;;;;;;;17.95;13.95;;;9.50;99.90;;;;;;5114751;28;20231;-78
2021/04/05 07:08:58;;;;;;;18.70;13.45;;;9.50;99.90;;;;;;5113140;28;20182;-77
2021/04/05 07:11:48;;;;;;;22.30;14.27;;;9.40;99.90;;;;;;5114650;28;20222;-78
2021/04/05 07:14:49;;;;;;;21.20;14.15;;;9.40;99.90;;;;;;5114590;28;20262;-77
2021/04/05 07:17:44;;;;;;;20.73;14.65;;;9.40;99.90;;;;;;5112901;28;20205;-78
2021/04/05 07:20:35;;;;;;;23.58;12.77;;;9.40;99.90;;;;;;5115251;28;20569;-78
2021/04/05 07:23:43;;;;;;;22.65;14.38;;;9.40;99.90;;;;;;5114785;28;20175;-78
2021/04/05 07:26:35;;;;;;;18.98;13.55;;;9.30;99.90;;;;;;5114537;28;20244;-78
2021/04/05 07:29:31;;;;;;;20.55;13.82;;;9.40;99.90;;;;;;5113515;28;20210;-77
2021/04/05 07:32:09;;;;;;;14.27;11.70;;;9.40;99.90;;;;;;5114739;28;20204;-79
2021/04/05 07:34:53;;;;;;;17.38;12.80;;;9.40;99.90;;;;;;5113151;28;20262;-78
2021/04/05 07:37:22;;;;;;;14.48;12.07;;;9.50;99.90;;;;;;5118406;28;20206;-78
2021/04/05 07:40:15;;;;;;;19.50;14.48;;;9.50;99.90;;;;;;5109433;28;20177;-78
2021/04/05 07:43:02;;;;;;;18.38;13.75;;;9.50;99.90;;;;;;5093587;28;20174;-77
2021/04/05 07:45:51;;;;;;;21.73;14.20;;;9.60;99.90;;;;;;5093121;28;20313;-78
2021/04/05 07:48:28;;;;;;;15.98;13.68;;;9.60;99.90;;;;;;5093830;28;20201;-78
2021/04/05 07:51:16;;;;;;;19.92;14.93;;;9.70;99.90;;;;;;5076536;28;20198;-80
2021/04/05 07:53:50;;;;;;;19.52;13.95;;;9.70;99.90;;;;;;5094347;28;20183;-78
2021/04/05 07:56:27;;;;;;;18.90;13.95;;;9.80;99.90;;;;;;5092544;28;20268;-78
2021/04/05 07:58:58;;;;;;;19.95;12.68;;;9.80;99.90;;;;;;5095848;28;20176;-78
2021/04/05 08:01:49;;;;;;;21.15;14.43;;;9.90;99.90;;;;;;5095483;28;20207;-78
2021/04/05 08:04:56;;;;;;;20.50;14.20;;;9.90;99.90;;;;;;5115240;28;20167;-79
2021/04/05 08:07:32;;;;;;;15.80;12.40;;;10.00;99.90;;;;;;5092843;28;20222;-77
2021/04/05 08:10:15;;;;;;;22.80;14.27;;;10.00;99.90;;;;;;5112989;28;20169;-78
2021/04/05 08:12:57;;;;;;;23.80;14.05;;;10.10;99.90;;;;;;5094166;28;20643;-80
2021/04/05 08:15:41;;;;;;;18.02;11.57;;;10.10;99.90;;;;;;5116163;28;20631;-79
2021/04/05 08:18:17;;;;;;;21.88;14.70;;;10.20;99.90;;;;;;5113810;28;20167;-79
2021/04/05 08:20:51;;;;;;;24.33;14.05;;;10.20;99.90;;;;;;5114231;28;20206;-79
2021/04/05 08:23:26;;;;;;;15.95;11.40;;;10.30;99.90;;;;;;5114698;28;20254;-80
2021/04/05 08:26:25;;;;;;;20.38;13.80;;;10.30;99.90;;;;;;5115033;28;20166;-80
2021/04/05 08:29:12;;;;;;;18.17;12.98;;;10.30;99.90;;;;;;5100409;28;20187;-80
2021/04/05 08:31:55;;;;;;;12.45;10.40;;;10.30;99.90;;;;;;5114260;28;20183;-79
2021/04/05 08:34:39;;;;;;;16.45;12.02;;;10.30;99.90;;;;;;5112505;28;20174;-80
2021/04/05 08:37:35;;;;;;;14.98;12.23;;;10.30;99.90;;;;;;5116656;28;20551;-81
2021/04/05 08:40:06;;;;;;;9.32;7.95;;;10.30;99.90;;;;;;5117096;28;20292;-80
2021/04/05 08:42:50;;;;;;;9.80;6.93;;;10.10;99.90;;;;;;5121370;28;20254;-80
2021/04/05 08:45:20;;;;;;;8.82;4.65;;;10.00;99.90;;;;;;5119529;28;20603;-81
2021/04/05 08:47:53;;;;;;;6.78;4.45;;;9.80;99.90;;;;;;5122110;28;20254;-79
2021/04/05 08:50:22;;;;;;;4.63;2.65;;;9.60;99.90;;;;;;5123494;28;20170;-80
2021/04/05 08:52:51;;;;;;;3.45;2.40;;;9.40;99.90;;;;;;5126513;28;20197;-80
2021/04/05 08:55:21;;;;;;;3.58;1.83;;;9.20;99.90;;;;;;5104979;28;20164;-80
2021/04/05 08:57:55;;;;;;;4.68;2.30;;;9.10;99.90;;;;;;5123355;28;20174;-80
2021/04/05 09:00:23;;;;;;;3.53;1.75;;;8.90;99.90;;;;;;5123024;28;20235;-80
2021/04/05 09:03:00;;;;;;;4.70;2.20;;;8.80;99.90;;;;;;5117362;28;20175;-80
2021/04/05 09:05:32;;;;;;;2.67;1.20;;;8.70;99.90;;;;;;5117346;28;20178;-80
2021/04/05 09:08:03;;;;;;;2.40;1.55;;;8.60;99.90;;;;;;5116718;28;20167;-80
2021/04/05 09:10:34;;;;;;;2.95;1.50;;;8.50;99.90;;;;;;5114878;28;20159;-80
2021/04/05 09:13:07;;;;;;;2.25;1.50;;;8.40;99.90;;;;;;5121035;28;20202;-80
2021/04/05 09:16:05;;;;;;;3.90;1.67;;;8.30;99.90;;;;;;5118537;28;20191;-79
2021/04/05 09:18:52;;;;;;;5.80;1.90;;;8.30;99.90;;;;;;5112377;28;20159;-79
2021/04/05 09:21:57;;;;;;;1.90;1.20;;;8.20;99.90;;;;;;5112964;28;20202;-80
2021/04/05 09:24:44;;;;;;;2.42;1.20;;;8.20;99.90;;;;;;5114266;28;20174;-79
2021/04/05 09:27:35;;;;;;;1.88;1.25;;;8.10;99.90;;;;;;5111454;28;20210;-79
2021/04/05 09:30:32;;;;;;;2.95;1.13;;;8.10;99.90;;;;;;5112611;28;20203;-79
2021/04/05 09:33:36;;;;;;;2.50;1.27;;;8.10;99.90;;;;;;5111726;28;20175;-80
2021/04/05 09:36:19;;;;;;;2.22;1.27;;;8.10;99.90;;;;;;5111286;28;20271;-79
2021/04/05 09:39:35;;;;;;;2.15;0.93;;;8.10;99.90;;;;;;5112258;28;20750;-79
2021/04/05 09:42:26;;;;;;;2.60;1.67;;;8.10;99.90;;;;;;5084960;28;20704;-80
2021/04/05 09:45:08;;;;;;;2.35;1.40;;;8.20;99.90;;;;;;5112720;28;20163;-80
2021/04/05 09:48:08;;;;;;;3.70;1.50;;;8.20;99.90;;;;;;5093695;28;20171;-80
2021/04/05 09:50:59;;;;;;;3.53;1.08;;;8.20;99.90;;;;;;5111821;28;20218;-80
2021/04/05 09:54:22;;;;;;;1.20;0.80;;;8.10;99.90;;;;;;5111001;28;20186;-80
2021/04/05 09:56:54;;;;;;;4.18;0.80;;;8.10;99.90;;;;;;5032459;28;20232;-80
2021/04/05 09:59:33;;;;;;;1.83;0.60;;;7.90;99.90;;;;;;5032748;28;20201;-81
2021/04/05 10:01:59;;;;;;;1.10;0.80;;;7.80;99.90;;;;;;5088788;28;20288;-84
2021/04/05 10:04:27;;;;;;;1.40;0.80;;;7.70;99.90;;;;;;5109582;28;20159;-83
2021/04/05 10:06:54;;;;;;;1.50;1.10;;;7.60;99.90;;;;;;5118263;28;20163;-83
2021/04/05 10:09:27;;;;;;;1.60;0.90;;;7.50;99.90;;;;;;5111248;28;20170;-83
2021/04/05 10:11:53;;;;;;;3.70;1.00;;;7.40;99.90;;;;;;5112162;28;20187;-83
2021/04/05 10:14:22;;;;;;;1.60;0.70;;;7.30;99.90;;;;;;5112141;28;20552;-84
2021/04/05 10:16:52;;;;;;;3.70;0.90;;;7.10;99.90;;;;;;5077047;28;20252;-86
2021/04/05 10:19:33;;;;;;;2.80;0.90;;;7.00;99.90;;;;;;5112426;28;20167;-84
2021/04/05 10:22:04;;;;;;;4.03;1.15;;;6.90;99.90;;;;;;5112993;28;20200;-84
2021/04/05 10:24:33;;;;;;;3.80;0.90;;;6.90;99.90;;;;;;5111401;28;20171;-87
2021/04/05 10:27:02;;;;;;;5.65;1.23;;;6.80;99.90;;;;;;5112468;28;20159;-85
2021/04/05 10:29:30;;;;;;;4.45;2.28;;;6.80;99.90;;;;;;5117101;28;20210;-84
2021/04/05 10:32:00;;;;;;;4.18;1.10;;;6.70;99.90;;;;;;5112449;28;20195;-84
2021/04/05 10:34:27;;;;;;;5.70;1.80;;;6.70;99.90;;;;;;5111792;28;20688;-87
2021/04/05 10:37:08;;;;;;;5.38;1.33;;;6.50;99.90;;;;;;5112620;28;20624;-85
2021/04/05 10:39:35;;;;;;;6.22;1.40;;;6.60;99.90;;;;;;5112328;28;21152;-83
2021/04/05 10:42:13;;;;;;;2.83;1.35;;;6.60;99.90;;;;;;5112367;28;20198;-84
2021/04/05 10:44:44;;;;;;;4.82;2.40;;;6.70;99.90;;;;;;5100229;28;20198;-84
2021/04/05 10:47:17;;;;;;;7.43;1.33;;;6.80;99.90;;;;;;5093864;28;20174;-83
2021/04/05 10:49:46;;;;;;;5.40;0.93;;;6.90;99.90;;;;;;5111101;28;20586;-83
2021/04/05 10:52:34;;;;;;;4.60;1.17;;;7.00;99.90;;;;;;5112965;28;20191;-85
2021/04/05 10:55:01;;;;;;;2.38;0.98;;;7.00;99.90;;;;;;5111220;28;20198;-86
2021/04/05 10:57:34;;;;;;;4.38;1.17;;;7.10;99.90;;;;;;5093773;28;20287;-84
2021/04/05 11:00:24;;;;;;;4.70;1.20;;;7.10;99.90;;;;;;5094807;28;20175;-85
2021/04/05 11:03:08;;;;;;;6.80;1.70;;;7.30;99.90;;;;;;5113284;28;20174;-83
2021/04/05 11:05:36;;;;;;;6.25;1.52;;;7.30;99.90;;;;;;5115059;28;20783;-83
2021/04/05 11:08:05;;;;;;;5.43;1.50;;;7.40;99.90;;;;;;5115344;28;20634;-84
2021/04/05 11:10:34;;;;;;;9.05;2.22;;;7.50;99.90;;;;;;5115628;28;20171;-83
2021/04/05 11:13:19;;;;;;;3.75;1.30;;;7.60;99.90;;;;;;5114348;28;20177;-84
2021/04/05 11:15:47;;;;;;;8.30;1.88;;;7.60;99.90;;;;;;5115747;28;20194;-83
2021/04/05 11:18:16;;;;;;;4.25;1.30;;;7.70;99.90;;;;;;5114012;28;20562;-84
2021/04/05 11:20:44;;;;;;;4.38;2.00;;;7.80;99.90;;;;;;5120347;28;20185;-84
2021/04/05 11:23:15;;;;;;;5.18;1.52;;;7.90;99.90;;;;;;5117134;28;20221;-84
2021/04/05 11:25:44;;;;;;;7.00;2.03;;;8.00;99.90;;;;;;5118741;27;20171;-83
2021/04/05 11:28:22;;;;;;;7.63;2.05;;;8.10;99.90;;;;;;5116064;28;20201;-81
2021/04/05 11:30:54;;;;;;;4.00;1.30;;;8.10;99.90;;;;;;5115526;28;20237;-83
2021/04/05 11:33:29;;;;;;;7.80;1.52;;;8.20;99.90;;;;;;5097388;28;20192;-83
2021/04/05 11:35:59;;;;;;;3.75;1.10;;;8.20;99.90;;;;;;5114632;28;20203;-82
2021/04/05 11:38:25;;;;;;;3.22;0.80;;;8.20;99.90;;;;;;5116881;28;20245;-82
2021/04/05 11:41:01;;;;;;;2.03;0.80;;;8.00;99.90;;;;;;5115675;28;20190;-83
2021/04/05 11:43:31;;;;;;;2.17;0.60;;;7.70;99.90;;;;;;5089685;28;20159;-84
2021/04/05 11:46:28;;;;;;;1.92;0.68;;;7.40;99.90;;;;;;5101074;28;20224;-83
2021/04/05 11:49:11;;;;;;;1.45;0.65;;;7.00;99.90;;;;;;5098337;28;20183;-82
2021/04/05 11:52:04;;;;;;;1.85;0.68;;;6.70;99.90;;;;;;5104319;28;20191;-83
2021/04/05 11:54:45;;;;;;;1.45;0.90;;;6.50;99.90;;;;;;5098089;28;20526;-83
2021/04/05 11:57:14;;;;;;;3.00;0.90;;;6.40;99.90;;;;;;5118497;28;20217;-83
2021/04/05 11:59:51;;;;;;;4.15;1.20;;;6.40;99.90;;;;;;5114827;28;20178;-82
2021/04/05 12:02:44;;;;;;;2.63;1.13;;;6.40;99.90;;;;;;5096007;28;20216;-79
2021/04/05 12:05:18;;;;;;;4.65;2.90;;;6.50;99.90;;;;;;5113186;28;20163;-82
2021/04/05 12:07:47;;;;;;;3.03;1.40;;;6.60;99.90;;;;;;5107761;28;20174;-81
2021/04/05 12:10:22;;;;;;;3.20;0.90;;;6.80;99.90;;;;;;5093855;28;20177;-82
2021/04/05 12:13:03;;;;;;;1.60;0.70;;;7.00;99.90;;;;;;5092752;28;20179;-82
2021/04/05 12:15:29;;;;;;;1.75;0.85;;;7.20;99.90;;;;;;5098499;28;20253;-82
2021/04/05 12:17:57;;;;;;;3.05;0.80;;;7.40;99.90;;;;;;5113904;28;20532;-82
2021/04/05 12:20:25;;;;;;;1.95;0.77;;;7.60;99.90;;;;;;5114495;28;20159;-80
2021/04/05 12:22:56;;;;;;;4.28;1.05;;;7.90;99.90;;;;;;5113921;28;20249;-81
2021/04/05 12:25:46;;;;;;;2.10;0.90;;;8.10;99.90;;;;;;5114055;28;20167;-81
2021/04/05 12:28:12;;;;;;;2.75;1.05;;;8.20;99.90;;;;;;5113463;28;20167;-81
2021/04/05 12:30:40;;;;;;;3.17;1.05;;;8.50;99.90;;;;;;5112522;28;20298;-81
2021/04/05 12:33:14;;;;;;;2.33;1.10;;;8.60;99.90;;;;;;5095655;28;20177;-82
2021/04/05 12:35:42;;;;;;;4.72;1.10;;;8.60;99.60;;;;;;5120880;28;20279;-82
2021/04/05 12:38:09;;;;;;;3.70;1.00;;;8.60;99.90;;;;;;5113356;28;20167;-82
2021/04/05 12:40:39;;;;;;;2.65;1.00;;;8.60;99.60;;;;;;5115090;28;20183;-80
2021/04/05 12:43:10;;;;;;;2.25;0.90;;;8.60;99.30;;;;;;5116605;28;20167;-79
2021/04/05 12:45:40;;;;;;;2.92;1.13;;;8.60;98.20;;;;;;5083300;28;20279;-80
2021/04/05 12:48:08;;;;;;;2.72;1.23;;;8.70;97.70;;;;;;5113954;28;20159;-81
2021/04/05 12:50:36;;;;;;;8.38;0.80;;;8.40;97.40;;;;;;5112920;28;20189;-80
2021/04/05 12:53:09;;;;;;;3.20;0.90;;;8.30;97.30;;;;;;5113718;28;20165;-81
2021/04/05 12:55:43;;;;;;;2.80;0.80;;;8.00;97.30;;;;;;5114936;28;20162;-82
2021/04/05 12:58:09;;;;;;;3.60;0.95;;;7.70;97.40;;;;;;5113105;28;20177;-81
2021/04/05 13:00:41;;;;;;;3.58;0.80;;;7.40;97.40;;;;;;5092724;28;20172;-83
2021/04/05 13:03:25;;;;;;;1.35;0.70;;;7.20;97.90;;;;;;5091805;28;20262;-83
2021/04/05 13:06:02;;;;;;;4.07;1.13;;;7.10;98.50;;;;;;5092106;28;20686;-81
2021/04/05 13:08:58;;;;;;;3.03;1.15;;;6.80;99.60;;;;;;5092916;28;20504;-80
2021/04/05 13:11:26;;;;;;;4.30;1.25;;;6.80;99.80;;;;;;5095229;28;20202;-80
2021/04/05 13:13:59;;;;;;;2.80;1.38;;;6.80;99.70;;;;;;5091414;28;20172;-81
2021/04/05 13:16:31;;;;;;;5.47;1.20;;;6.90;99.90;;;;;;5091726;28;20197;-81
2021/04/05 13:19:00;;;;;;;4.60;1.27;;;7.00;99.90;;;;;;5091030;28;20160;-80
2021/04/05 13:21:35;;;;;;;3.35;1.00;;;7.00;99.90;;;;;;5092515;28;20184;-81
2021/04/05 13:24:04;;;;;;;2.80;1.20;;;7.10;99.90;;;;;;5094488;28;20210;-81
2021/04/05 13:26:36;;;;;;;4.80;1.20;;;7.20;99.90;;;;;;5099109;28;21057;-82